Angora, Nebraska
Current Conditions -  °F | °C
As of 4:53 AM on Friday 24 Oct 2014 (Local Time) from KAIA Reporting Station
Clear Clear  
Wind Chill: 39°   Ceiling: Unl
Heat Index: 43°   Visibility: 10mi
Dew Point: 32°   Wind: 7mph
Humidity: 65%   Direction: 260°W
Pressure: 29.99"   Gusts: NA
Location:  41.85°N, 103.13°W
Report Text: KAIA 241053Z AUTO 26006KT 10SM CLR 06/00 A2999 RMK AO2 SLP140 T00610000
Loading
Personal Weather Stations






























Interactive Weather Map New forecast layout! Learn more

10-Day Weather Forecast

Advertisements
Track Severe Weather on mobile